createdAt,value
2022-10-10T00:02:49.804Z,99.90
2022-10-10T00:05:42.846Z,99.90
2022-10-10T00:08:35.439Z,99.90
2022-10-10T00:11:27.710Z,99.90
2022-10-10T00:14:19.899Z,99.90
2022-10-10T00:17:12.025Z,99.90
2022-10-10T00:20:04.829Z,99.90
2022-10-10T00:22:56.966Z,99.90
2022-10-10T00:25:49.678Z,99.90
2022-10-10T00:28:41.917Z,99.90
2022-10-10T00:31:34.111Z,99.90
2022-10-10T00:34:26.288Z,99.90
2022-10-10T00:37:18.486Z,99.90
2022-10-10T00:40:11.620Z,99.90
2022-10-10T00:43:03.756Z,99.90
2022-10-10T00:45:56.001Z,99.90
2022-10-10T00:48:48.179Z,99.90
2022-10-10T00:51:40.965Z,99.90
2022-10-10T00:54:34.189Z,99.90
2022-10-10T00:57:26.350Z,99.90
2022-10-10T01:00:19.028Z,99.90
2022-10-10T01:03:11.166Z,99.90
2022-10-10T01:06:03.893Z,99.90
2022-10-10T01:08:57.396Z,99.90
2022-10-10T01:12:13.665Z,99.90
2022-10-10T01:15:17.855Z,99.90
2022-10-10T01:18:28.408Z,99.90
2022-10-10T01:21:27.036Z,99.90
2022-10-10T01:24:42.174Z,99.90
2022-10-10T01:27:43.404Z,99.90
2022-10-10T01:30:35.823Z,99.90
2022-10-10T01:33:57.284Z,99.90
2022-10-10T01:37:20.726Z,99.90
2022-10-10T01:40:23.870Z,99.90
2022-10-10T01:43:17.959Z,99.90
2022-10-10T01:46:12.449Z,99.90
2022-10-10T01:49:04.757Z,99.90
2022-10-10T01:52:15.378Z,99.90
2022-10-10T01:55:18.817Z,99.90
2022-10-10T01:58:26.047Z,99.90
2022-10-10T02:01:36.686Z,99.90
2022-10-10T02:05:06.589Z,99.90
2022-10-10T02:08:37.688Z,99.90
2022-10-10T02:11:34.300Z,99.90
2022-10-10T02:14:33.137Z,99.90
2022-10-10T02:17:27.146Z,99.90
2022-10-10T02:20:24.363Z,99.90
2022-10-10T02:23:19.774Z,99.90
2022-10-10T02:26:15.528Z,99.90
2022-10-10T02:29:12.060Z,99.90
2022-10-10T02:32:16.213Z,99.90
2022-10-10T02:35:23.359Z,99.90
2022-10-10T02:38:16.540Z,99.90
2022-10-10T02:41:10.591Z,99.90
2022-10-10T02:44:03.321Z,99.90
2022-10-10T02:46:55.702Z,99.90
2022-10-10T02:49:48.184Z,99.90
2022-10-10T02:52:40.376Z,99.90
2022-10-10T02:55:32.626Z,99.90
2022-10-10T02:58:24.756Z,99.90
2022-10-10T03:01:16.914Z,99.90
2022-10-10T03:04:09.277Z,99.90
2022-10-10T03:07:01.582Z,99.90
2022-10-10T03:09:53.701Z,99.90
2022-10-10T03:12:45.819Z,99.90
2022-10-10T03:15:37.943Z,99.90
2022-10-10T03:18:30.139Z,99.90
2022-10-10T03:21:22.504Z,99.90
2022-10-10T03:24:15.196Z,99.90
2022-10-10T03:27:07.329Z,99.90
2022-10-10T03:29:59.464Z,99.90
2022-10-10T03:32:51.823Z,99.90
2022-10-10T03:35:44.383Z,99.90
2022-10-10T03:38:36.640Z,99.90
2022-10-10T03:41:28.806Z,99.90
2022-10-10T03:44:20.939Z,99.90
2022-10-10T03:47:13.054Z,99.90
2022-10-10T03:50:05.977Z,99.90
2022-10-10T03:52:58.104Z,99.90
2022-10-10T03:55:50.237Z,99.90
2022-10-10T03:58:42.456Z,99.90
2022-10-10T04:01:34.943Z,99.90
2022-10-10T04:04:27.137Z,99.90
2022-10-10T04:07:19.912Z,99.90
2022-10-10T04:10:12.065Z,99.90
2022-10-10T04:13:04.171Z,99.90
2022-10-10T04:15:57.358Z,99.90
2022-10-10T04:18:49.492Z,99.90
2022-10-10T04:21:41.619Z,99.90
2022-10-10T04:24:33.740Z,99.90
2022-10-10T04:27:25.886Z,99.90
2022-10-10T04:30:18.759Z,99.90
2022-10-10T04:33:11.680Z,99.90
2022-10-10T04:36:03.913Z,99.90
2022-10-10T04:38:56.097Z,99.90
2022-10-10T04:41:50.979Z,99.90
2022-10-10T04:44:43.096Z,99.90
2022-10-10T04:47:35.294Z,99.90
2022-10-10T04:50:27.499Z,99.90
2022-10-10T04:53:19.837Z,99.90
2022-10-10T04:56:11.991Z,99.90
2022-10-10T04:59:04.143Z,99.90
2022-10-10T05:02:01.357Z,99.90
2022-10-10T05:04:53.942Z,99.90
2022-10-10T05:07:46.123Z,99.90
2022-10-10T05:10:39.475Z,99.90
2022-10-10T05:13:31.632Z,99.90
2022-10-10T05:16:23.795Z,99.90
2022-10-10T05:19:15.904Z,99.90
2022-10-10T05:22:08.135Z,99.90
2022-10-10T05:25:00.275Z,99.90
2022-10-10T05:27:52.569Z,99.90
2022-10-10T05:30:44.674Z,99.90
2022-10-10T05:33:36.774Z,99.90
2022-10-10T05:36:28.914Z,99.90
2022-10-10T05:39:21.011Z,99.90
2022-10-10T05:42:14.134Z,99.90
2022-10-10T05:45:06.819Z,99.90
2022-10-10T05:47:58.955Z,99.90
2022-10-10T05:50:54.834Z,99.90
2022-10-10T05:53:47.751Z,99.90
2022-10-10T05:56:39.887Z,99.90
2022-10-10T05:59:32.041Z,99.90
2022-10-10T06:02:24.377Z,99.90
2022-10-10T06:05:17.004Z,99.90
2022-10-10T06:08:11.785Z,99.90
2022-10-10T06:11:08.115Z,99.90
2022-10-10T06:14:00.304Z,96.80
2022-10-10T06:16:52.484Z,93.80
2022-10-10T06:19:44.786Z,92.20
2022-10-10T06:22:36.932Z,89.50
2022-10-10T06:25:40.045Z,84.10
2022-10-10T06:28:33.348Z,81.00
2022-10-10T06:31:25.559Z,77.60
2022-10-10T06:34:17.796Z,74.20
2022-10-10T06:37:12.363Z,73.30
2022-10-10T06:40:04.960Z,74.00
2022-10-10T06:42:57.158Z,73.90
2022-10-10T06:45:50.707Z,73.30
2022-10-10T06:48:42.879Z,75.30
2022-10-10T06:51:35.126Z,77.20
2022-10-10T06:54:27.225Z,77.60
2022-10-10T06:57:19.326Z,79.60
2022-10-10T07:00:12.377Z,80.00
2022-10-10T07:03:04.548Z,80.50
2022-10-10T07:05:59.173Z,81.60
2022-10-10T07:08:52.175Z,84.20
2022-10-10T07:11:45.511Z,84.50
2022-10-10T07:14:37.671Z,85.50
2022-10-10T07:17:31.351Z,89.80
2022-10-10T07:20:23.482Z,88.20
2022-10-10T07:23:16.263Z,90.30
2022-10-10T07:26:13.002Z,90.50
2022-10-10T07:29:08.457Z,89.80
2022-10-10T07:32:00.625Z,90.40
2022-10-10T07:34:53.634Z,91.50
2022-10-10T07:37:45.789Z,91.80
2022-10-10T07:40:40.958Z,92.60
2022-10-10T07:43:33.081Z,94.20
2022-10-10T07:46:25.331Z,94.60
2022-10-10T07:49:17.473Z,93.50
2022-10-10T07:52:09.657Z,94.90
2022-10-10T07:55:02.315Z,95.90
2022-10-10T07:57:54.780Z,96.80
2022-10-10T08:00:47.291Z,96.60
2022-10-10T08:03:40.229Z,97.10
2022-10-10T08:06:32.446Z,96.10
2022-10-10T08:09:25.067Z,96.40
2022-10-10T08:12:17.380Z,96.60
2022-10-10T08:15:09.813Z,96.20
2022-10-10T08:18:01.955Z,97.80
2022-10-10T08:21:07.984Z,96.60
2022-10-10T08:24:00.119Z,96.40
2022-10-10T08:26:52.252Z,97.10
2022-10-10T08:29:44.573Z,98.00
2022-10-10T08:32:36.694Z,98.10
2022-10-10T08:35:28.799Z,97.20
2022-10-10T08:38:21.164Z,97.10
2022-10-10T08:41:33.052Z,97.20
2022-10-10T08:44:39.352Z,98.20
2022-10-10T08:47:55.789Z,97.90
2022-10-10T08:50:59.555Z,98.80
2022-10-10T08:53:55.428Z,99.00
2022-10-10T08:56:48.611Z,99.50
2022-10-10T08:59:42.437Z,99.80
2022-10-10T09:02:54.344Z,99.50
2022-10-10T09:06:21.970Z,99.40
2022-10-10T09:09:34.488Z,99.40
2022-10-10T09:13:01.408Z,99.90
2022-10-10T09:16:07.698Z,99.90
2022-10-10T09:19:24.708Z,99.90
2022-10-10T09:22:22.490Z,99.90
2022-10-10T09:25:23.687Z,99.90
2022-10-10T09:28:23.591Z,99.90
2022-10-10T09:31:28.407Z,99.90
2022-10-10T09:34:40.816Z,99.60
2022-10-10T09:37:53.693Z,99.90
2022-10-10T09:40:53.904Z,98.90
2022-10-10T09:43:46.599Z,98.40
2022-10-10T09:46:38.893Z,99.40
2022-10-10T09:49:31.208Z,99.90
2022-10-10T09:52:25.261Z,99.70
2022-10-10T09:55:33.848Z,98.20
2022-10-10T09:58:49.935Z,97.30
2022-10-10T10:01:42.056Z,98.20
2022-10-10T10:04:34.311Z,98.40
2022-10-10T10:07:31.990Z,98.70
2022-10-10T10:10:27.230Z,98.60
2022-10-10T10:13:27.914Z,98.20
2022-10-10T10:16:20.094Z,97.80
2022-10-10T10:19:37.411Z,97.90
2022-10-10T10:22:40.555Z,96.90
2022-10-10T10:25:37.007Z,97.60
2022-10-10T10:28:29.619Z,97.90
2022-10-10T10:31:35.492Z,96.10
2022-10-10T10:35:02.830Z,95.90
2022-10-10T10:37:57.775Z,96.10
2022-10-10T10:41:27.345Z,95.80
2022-10-10T10:44:37.415Z,96.30
2022-10-10T10:47:51.932Z,95.50
2022-10-10T10:50:44.054Z,96.90
2022-10-10T10:53:49.046Z,95.60
2022-10-10T10:57:06.594Z,95.70
2022-10-10T11:00:22.144Z,95.30
2022-10-10T11:05:17.186Z,94.60
2022-10-10T11:07:18.013Z,94.90
2022-10-10T11:10:26.488Z,95.20
2022-10-10T11:13:47.021Z,95.60
2022-10-10T11:16:49.366Z,94.90
2022-10-10T11:19:56.562Z,95.20
2022-10-10T11:23:09.407Z,95.40
2022-10-10T11:26:33.076Z,95.60
2022-10-10T11:29:30.624Z,95.00
2022-10-10T11:32:41.942Z,95.50
2022-10-10T11:35:41.232Z,95.10
2022-10-10T11:38:49.705Z,95.00
2022-10-10T11:41:44.626Z,94.60
2022-10-10T11:44:57.171Z,93.90
2022-10-10T11:47:55.116Z,94.90
2022-10-10T11:50:57.829Z,95.30
2022-10-10T11:53:51.955Z,94.40
2022-10-10T11:56:45.726Z,94.00
2022-10-10T11:59:48.179Z,93.90
2022-10-10T12:02:42.307Z,94.60
2022-10-10T12:05:38.750Z,93.30
2022-10-10T12:08:41.217Z,93.40
2022-10-10T12:11:45.908Z,93.80
2022-10-10T12:14:41.216Z,94.10
2022-10-10T12:17:36.519Z,93.90
2022-10-10T12:20:30.298Z,95.40
2022-10-10T12:23:30.660Z,93.80
2022-10-10T12:26:24.383Z,92.90
2022-10-10T12:29:51.105Z,93.40
2022-10-10T12:32:45.356Z,94.20
2022-10-10T12:35:40.283Z,92.80
2022-10-10T12:38:32.454Z,93.50
2022-10-10T12:41:47.720Z,93.10
2022-10-10T12:44:46.499Z,93.40
2022-10-10T12:48:04.633Z,91.70
2022-10-10T12:51:01.283Z,91.30
2022-10-10T12:53:56.981Z,91.70
2022-10-10T12:56:58.883Z,91.00
2022-10-10T12:59:51.810Z,92.30
2022-10-10T13:02:50.578Z,91.20
2022-10-10T13:05:43.671Z,90.80
2022-10-10T13:08:37.492Z,90.60
2022-10-10T13:11:29.768Z,89.30
2022-10-10T13:14:22.323Z,91.10
2022-10-10T13:17:30.733Z,91.00
2022-10-10T13:20:41.267Z,90.00
2022-10-10T13:23:40.543Z,90.60
2022-10-10T13:26:37.550Z,88.50
2022-10-10T13:29:32.772Z,90.50
2022-10-10T13:32:32.159Z,91.50
2022-10-10T13:35:26.965Z,91.20
2022-10-10T13:38:24.461Z,88.40
2022-10-10T13:41:20.917Z,89.20
2022-10-10T13:44:25.045Z,91.50
2022-10-10T13:47:35.860Z,90.10
2022-10-10T13:50:53.534Z,91.40
2022-10-10T13:53:51.776Z,89.70
2022-10-10T13:56:43.968Z,91.40
2022-10-10T13:59:36.588Z,90.50
2022-10-10T14:02:32.383Z,90.70
2022-10-10T14:05:31.285Z,90.90
2022-10-10T14:08:31.977Z,90.20
2022-10-10T14:11:27.353Z,90.80
2022-10-10T14:14:49.968Z,90.60
2022-10-10T14:17:42.103Z,91.40
2022-10-10T14:20:34.235Z,91.60
2022-10-10T14:23:26.694Z,91.70
2022-10-10T14:26:20.658Z,93.30
2022-10-10T14:29:17.806Z,93.30
2022-10-10T14:32:11.608Z,92.90
2022-10-10T14:35:04.697Z,92.30
2022-10-10T14:37:56.860Z,92.20
2022-10-10T14:40:50.543Z,91.60
2022-10-10T14:43:45.920Z,91.60
2022-10-10T14:46:39.337Z,91.90
2022-10-10T14:49:31.491Z,92.30
2022-10-10T14:52:23.728Z,93.00
2022-10-10T14:55:16.027Z,93.00
2022-10-10T14:58:15.285Z,93.70
2022-10-10T15:01:07.807Z,93.80
2022-10-10T15:03:59.946Z,94.00
2022-10-10T15:07:11.983Z,94.80
2022-10-10T15:13:17.473Z,95.10
2022-10-10T15:16:09.633Z,96.10
2022-10-10T15:19:01.792Z,96.50
2022-10-10T15:21:53.955Z,96.70
2022-10-10T15:24:46.066Z,96.90
2022-10-10T15:27:38.817Z,96.10
2022-10-10T15:30:31.240Z,95.30
2022-10-10T15:33:23.434Z,94.80
2022-10-10T15:36:19.159Z,96.10
2022-10-10T15:39:11.990Z,96.50
2022-10-10T15:42:12.226Z,97.10
2022-10-10T15:45:06.951Z,97.40
2022-10-10T15:47:59.279Z,97.00
2022-10-10T15:50:52.089Z,97.10
2022-10-10T15:53:44.727Z,97.80
2022-10-10T15:56:37.013Z,98.30
2022-10-10T15:59:29.571Z,98.20
2022-10-10T16:02:21.726Z,97.80
2022-10-10T16:05:13.857Z,97.80
2022-10-10T16:08:08.729Z,97.10
2022-10-10T16:11:09.490Z,97.30
2022-10-10T16:14:01.489Z,97.20
2022-10-10T16:16:53.680Z,97.00
2022-10-10T16:19:46.001Z,96.90
2022-10-10T16:22:38.120Z,97.20
2022-10-10T16:25:30.249Z,97.50
2022-10-10T16:28:22.917Z,97.90
2022-10-10T16:31:17.902Z,98.40
2022-10-10T16:34:10.836Z,98.90
2022-10-10T16:37:02.949Z,99.80
2022-10-10T16:39:55.145Z,99.30
2022-10-10T16:42:47.390Z,97.90
2022-10-10T16:45:43.891Z,97.90
2022-10-10T16:48:37.600Z,98.10
2022-10-10T16:51:30.435Z,99.00
2022-10-10T16:54:22.608Z,99.80
2022-10-10T16:57:14.815Z,99.90
2022-10-10T17:00:09.127Z,99.90
2022-10-10T17:03:01.845Z,99.90
2022-10-10T17:06:07.196Z,99.90
2022-10-10T17:09:00.207Z,99.90
2022-10-10T17:11:52.414Z,99.90
2022-10-10T17:14:44.532Z,99.90
2022-10-10T17:17:37.021Z,99.90
2022-10-10T17:20:32.283Z,99.90
2022-10-10T17:23:24.422Z,99.90
2022-10-10T17:26:19.102Z,99.90
2022-10-10T17:29:11.336Z,99.90
2022-10-10T17:32:06.591Z,99.90
2022-10-10T17:34:59.121Z,99.90
2022-10-10T17:37:51.250Z,99.90
2022-10-10T17:40:43.450Z,99.90
2022-10-10T17:43:35.983Z,99.90
2022-10-10T17:46:36.327Z,99.90
2022-10-10T17:49:28.807Z,99.90
2022-10-10T17:52:21.634Z,99.90
2022-10-10T17:55:13.819Z,99.90
2022-10-10T17:58:05.928Z,99.90
2022-10-10T18:01:05.213Z,99.90
2022-10-10T18:03:57.477Z,99.90
2022-10-10T18:06:49.581Z,99.90
2022-10-10T18:09:41.819Z,99.90
2022-10-10T18:12:33.953Z,99.90
2022-10-10T18:15:26.257Z,99.90
2022-10-10T18:18:18.371Z,99.90
2022-10-10T18:21:11.878Z,99.90
2022-10-10T18:24:04.253Z,99.90
2022-10-10T18:26:56.381Z,99.90
2022-10-10T18:29:48.548Z,99.90
2022-10-10T18:32:40.788Z,99.90
2022-10-10T18:35:32.896Z,99.90
2022-10-10T18:38:25.015Z,99.90
2022-10-10T18:41:22.564Z,99.90
2022-10-10T18:44:17.223Z,99.90
2022-10-10T18:47:10.497Z,99.90
2022-10-10T18:50:02.787Z,99.90
2022-10-10T18:52:56.618Z,99.90
2022-10-10T18:55:55.509Z,99.90
2022-10-10T18:58:48.150Z,99.90
2022-10-10T19:01:40.785Z,99.90
2022-10-10T19:04:32.971Z,99.90
2022-10-10T19:07:25.117Z,99.90
2022-10-10T19:10:17.482Z,99.90
2022-10-10T19:13:09.625Z,99.90
2022-10-10T19:16:06.505Z,99.90
2022-10-10T19:19:00.118Z,99.90
2022-10-10T19:21:52.525Z,99.90
2022-10-10T19:24:44.626Z,99.90
2022-10-10T19:27:36.751Z,99.90
2022-10-10T19:30:28.859Z,99.90
2022-10-10T19:33:21.000Z,99.90
2022-10-10T19:36:13.543Z,99.90
2022-10-10T19:39:05.814Z,99.90
2022-10-10T19:41:58.037Z,99.90
2022-10-10T19:44:52.286Z,99.90
2022-10-10T19:47:44.429Z,99.90
2022-10-10T19:50:41.342Z,99.90
2022-10-10T19:53:35.384Z,99.90
2022-10-10T19:56:27.680Z,99.90
2022-10-10T19:59:19.842Z,99.90
2022-10-10T20:02:12.020Z,99.90
2022-10-10T20:05:04.268Z,99.90
2022-10-10T20:07:56.385Z,99.90
2022-10-10T20:10:51.943Z,99.90
2022-10-10T20:13:44.405Z,99.90
2022-10-10T20:16:36.779Z,99.90
2022-10-10T20:19:28.937Z,99.90
2022-10-10T20:22:21.122Z,99.90
2022-10-10T20:25:13.377Z,99.90
2022-10-10T20:28:05.878Z,99.90
2022-10-10T20:30:58.073Z,99.90
2022-10-10T20:33:52.680Z,99.90
2022-10-10T20:36:44.799Z,99.90
2022-10-10T20:39:36.930Z,99.90
2022-10-10T20:42:29.027Z,99.90
2022-10-10T20:45:21.848Z,99.90
2022-10-10T20:48:13.998Z,99.90
2022-10-10T20:51:15.208Z,99.90
2022-10-10T20:54:07.787Z,99.90
2022-10-10T20:56:59.943Z,99.90
2022-10-10T20:59:52.091Z,99.90
2022-10-10T21:02:44.225Z,99.90
2022-10-10T21:05:36.377Z,99.90
2022-10-10T21:08:28.687Z,99.90
2022-10-10T21:11:22.139Z,99.90
2022-10-10T21:14:14.277Z,99.90
2022-10-10T21:17:06.429Z,99.90
2022-10-10T21:19:58.509Z,99.90
2022-10-10T21:22:50.696Z,99.90
2022-10-10T21:25:43.311Z,99.90
2022-10-10T21:28:38.961Z,99.90
2022-10-10T21:31:36.872Z,99.90
2022-10-10T21:34:29.034Z,99.90
2022-10-10T21:37:21.197Z,99.90
2022-10-10T21:40:13.752Z,99.90
2022-10-10T21:43:06.065Z,99.90
2022-10-10T21:46:08.814Z,99.90
2022-10-10T21:49:03.326Z,99.90
2022-10-10T21:51:55.554Z,99.90
2022-10-10T21:54:47.772Z,99.90
2022-10-10T21:57:39.861Z,99.90
2022-10-10T22:00:32.034Z,99.90
2022-10-10T22:03:24.257Z,99.90
2022-10-10T22:06:19.759Z,99.90
2022-10-10T22:09:11.941Z,99.90
2022-10-10T22:12:04.429Z,99.90
2022-10-10T22:14:56.535Z,99.90
2022-10-10T22:17:48.650Z,99.90
2022-10-10T22:20:40.776Z,99.90
2022-10-10T22:23:32.969Z,99.90
2022-10-10T22:26:25.486Z,99.90
2022-10-10T22:29:17.591Z,99.90
2022-10-10T22:32:09.721Z,99.90
2022-10-10T22:35:02.215Z,99.90
2022-10-10T22:37:54.334Z,99.90
2022-10-10T22:40:46.462Z,99.90
2022-10-10T22:43:38.805Z,99.90
2022-10-10T22:46:31.006Z,99.90
2022-10-10T22:49:23.114Z,99.90
2022-10-10T22:52:15.267Z,99.90
2022-10-10T22:55:09.104Z,99.90
2022-10-10T22:58:01.319Z,99.90
2022-10-10T23:00:53.906Z,99.90
2022-10-10T23:03:46.366Z,99.90
2022-10-10T23:06:38.568Z,99.90
2022-10-10T23:09:30.756Z,99.90
2022-10-10T23:12:23.059Z,99.90
2022-10-10T23:15:15.235Z,99.90
2022-10-10T23:18:07.549Z,99.90
2022-10-10T23:21:00.041Z,99.90
2022-10-10T23:23:52.231Z,99.90
2022-10-10T23:26:44.328Z,99.90
2022-10-10T23:29:36.487Z,99.90
2022-10-10T23:32:30.256Z,99.90
2022-10-10T23:35:22.365Z,99.90
2022-10-10T23:38:14.449Z,99.90
2022-10-10T23:41:07.630Z,99.90
2022-10-10T23:43:59.717Z,99.90
2022-10-10T23:46:51.859Z,99.90
2022-10-10T23:49:44.044Z,99.90
2022-10-10T23:52:36.306Z,99.90
2022-10-10T23:55:28.409Z,99.90
2022-10-10T23:58:20.583Z,99.90
